createdAt,value
2018-06-28T00:01:58.303Z,93.20
2018-06-28T00:04:26.762Z,92.90
2018-06-28T00:06:55.248Z,93.00
2018-06-28T00:09:23.719Z,93.10
2018-06-28T00:11:52.230Z,93.10
2018-06-28T00:14:20.747Z,93.30
2018-06-28T00:16:49.177Z,93.30
2018-06-28T00:19:17.748Z,93.70
2018-06-28T00:21:47.264Z,93.60
2018-06-28T00:24:15.761Z,93.70
2018-06-28T00:26:44.207Z,93.80
2018-06-28T00:29:12.717Z,94.00
2018-06-28T00:31:41.180Z,94.20
2018-06-28T00:34:10.696Z,94.30
2018-06-28T00:36:39.283Z,94.50
2018-06-28T00:39:09.511Z,94.90
2018-06-28T00:41:38.287Z,95.10
2018-06-28T00:44:06.780Z,95.50
2018-06-28T00:46:35.263Z,95.70
2018-06-28T00:49:03.850Z,95.90
2018-06-28T00:51:32.328Z,95.80
2018-06-28T00:54:00.811Z,96.00
2018-06-28T00:56:29.292Z,96.40
2018-06-28T00:58:57.798Z,96.60
2018-06-28T01:03:54.820Z,97.00
2018-06-28T01:06:24.359Z,96.70
2018-06-28T01:08:52.799Z,96.90
2018-06-28T01:11:22.331Z,97.10
2018-06-28T01:13:50.800Z,97.30
2018-06-28T01:16:19.317Z,97.20
2018-06-28T01:18:48.080Z,97.40
2018-06-28T01:21:16.616Z,97.70
2018-06-28T01:23:45.050Z,98.10
2018-06-28T01:26:13.609Z,98.00
2018-06-28T01:28:42.089Z,98.40
2018-06-28T01:31:10.648Z,98.60
2018-06-28T01:33:39.094Z,98.70
2018-06-28T01:36:07.593Z,98.60
2018-06-28T01:43:43.411Z,99.20
2018-06-28T01:46:11.968Z,99.30
2018-06-28T01:48:40.604Z,99.80
2018-06-28T01:51:09.188Z,99.90
2018-06-28T01:53:37.724Z,99.90
2018-06-28T01:56:06.211Z,99.90
2018-06-28T01:58:34.687Z,99.90
2018-06-28T02:08:27.652Z,99.90
2018-06-28T02:10:56.139Z,99.90
2018-06-28T02:13:24.618Z,99.90
2018-06-28T02:15:53.072Z,99.90
2018-06-28T02:18:21.582Z,99.90
2018-06-28T02:20:50.040Z,99.90
2018-06-28T02:23:18.568Z,99.90
2018-06-28T02:28:15.193Z,99.90
2018-06-28T02:30:43.654Z,99.90
2018-06-28T02:33:12.171Z,99.90
2018-06-28T02:35:40.761Z,99.90
2018-06-28T02:38:09.212Z,99.90
2018-06-28T02:40:37.706Z,99.90
2018-06-28T02:43:06.225Z,99.90
2018-06-28T02:48:02.898Z,99.90
2018-06-28T02:50:31.313Z,99.90
2018-06-28T02:52:59.832Z,99.90
2018-06-28T02:55:28.292Z,99.90
2018-06-28T02:57:56.807Z,99.90
2018-06-28T03:07:49.757Z,99.90
2018-06-28T03:10:18.254Z,99.90
2018-06-28T03:12:46.771Z,99.90
2018-06-28T03:15:15.216Z,99.90
2018-06-28T03:17:43.720Z,99.90
2018-06-28T03:20:12.200Z,99.90
2018-06-28T03:22:40.724Z,99.90
2018-06-28T03:25:09.279Z,99.90
2018-06-28T03:32:34.069Z,99.90
2018-06-28T03:35:03.656Z,99.90
2018-06-28T03:37:32.408Z,99.90
2018-06-28T03:42:29.003Z,99.90
2018-06-28T03:44:57.559Z,99.90
2018-06-28T03:49:54.155Z,99.90
2018-06-28T03:52:23.544Z,99.90
2018-06-28T03:54:52.044Z,99.90
2018-06-28T03:57:20.540Z,99.90
2018-06-28T03:59:49.015Z,99.90
2018-06-28T04:02:17.492Z,99.90
2018-06-28T04:04:45.996Z,99.90
2018-06-28T04:07:14.471Z,99.90
2018-06-28T04:09:42.976Z,99.90
2018-06-28T04:14:39.599Z,99.90
2018-06-28T04:17:08.094Z,99.90
2018-06-28T04:19:36.508Z,99.90
2018-06-28T04:24:33.225Z,99.90
2018-06-28T04:27:01.706Z,99.90
2018-06-28T04:29:30.254Z,99.90
2018-06-28T04:33:02.578Z,99.90
2018-06-28T04:35:31.044Z,99.90
2018-06-28T04:37:59.557Z,99.90
2018-06-28T04:40:28.026Z,99.90
2018-06-28T04:42:56.466Z,99.90
2018-06-28T04:45:24.880Z,99.90
2018-06-28T04:47:53.272Z,99.90
2018-06-28T04:50:21.702Z,99.90
2018-06-28T04:52:50.108Z,99.90
2018-06-28T04:55:18.542Z,99.90
2018-06-28T04:57:46.970Z,99.90
2018-06-28T05:00:15.376Z,99.90
2018-06-28T05:02:43.780Z,99.90
2018-06-28T05:05:12.177Z,99.90
2018-06-28T05:07:40.560Z,99.90
2018-06-28T05:10:08.979Z,99.90
2018-06-28T05:12:37.391Z,99.90
2018-06-28T05:17:33.903Z,99.90
2018-06-28T05:20:02.328Z,99.90
2018-06-28T05:24:59.043Z,99.90
2018-06-28T05:27:27.471Z,99.90
2018-06-28T05:29:55.919Z,99.90
2018-06-28T05:32:24.349Z,99.90
2018-06-28T05:34:52.810Z,99.90
2018-06-28T05:37:21.196Z,99.90
2018-06-28T05:39:49.623Z,99.90
2018-06-28T05:42:18.092Z,99.90
2018-06-28T05:44:46.543Z,99.90
2018-06-28T05:47:15.000Z,99.90
2018-06-28T05:52:11.560Z,99.90
2018-06-28T05:57:08.368Z,99.90
2018-06-28T05:59:36.772Z,99.90
2018-06-28T06:02:05.396Z,99.90
2018-06-28T06:04:33.804Z,99.90
2018-06-28T06:07:02.228Z,99.90
2018-06-28T06:09:30.659Z,99.90
2018-06-28T06:11:59.116Z,99.90
2018-06-28T06:14:27.541Z,99.90
2018-06-28T06:16:56.008Z,99.90
2018-06-28T06:19:24.463Z,99.70
2018-06-28T06:21:52.883Z,99.80
2018-06-28T06:24:21.288Z,99.80
2018-06-28T06:26:49.736Z,99.60
2018-06-28T06:29:18.225Z,99.20
2018-06-28T06:31:46.615Z,99.10
2018-06-28T06:34:15.076Z,99.20
2018-06-28T06:36:43.516Z,99.10
2018-06-28T06:41:40.598Z,98.90
2018-06-28T06:44:08.984Z,98.60
2018-06-28T06:46:37.387Z,98.50
2018-06-28T06:49:05.851Z,98.50
2018-06-28T06:51:34.235Z,98.40
2018-06-28T06:54:02.678Z,98.30
2018-06-28T06:58:59.210Z,98.00
2018-06-28T07:01:27.624Z,98.10
2018-06-28T07:06:24.118Z,97.70
2018-06-28T07:08:52.519Z,97.50
2018-06-28T07:11:20.952Z,97.70
2018-06-28T07:13:49.403Z,97.50
2018-06-28T07:18:45.920Z,97.60
2018-06-28T07:21:14.344Z,97.10
2018-06-28T07:26:10.880Z,96.50
2018-06-28T07:28:39.316Z,96.70
2018-06-28T07:31:07.754Z,96.20
2018-06-28T07:36:04.324Z,96.00
2018-06-28T07:41:00.884Z,95.70
2018-06-28T07:43:29.303Z,95.20
2018-06-28T07:45:57.719Z,94.90
2018-06-28T07:50:54.268Z,94.70
2018-06-28T07:53:22.691Z,94.40
2018-06-28T07:55:51.135Z,94.50
2018-06-28T08:00:47.643Z,93.90
2018-06-28T08:03:16.067Z,93.80
2018-06-28T08:05:44.524Z,93.10
2018-06-28T08:08:12.935Z,93.50
2018-06-28T08:13:09.568Z,92.40
2018-06-28T08:15:38.001Z,92.50
2018-06-28T08:18:06.419Z,92.30
2018-06-28T08:20:34.840Z,91.90
2018-06-28T08:23:03.320Z,90.80
2018-06-28T08:25:31.739Z,90.50
2018-06-28T08:28:00.552Z,90.30
2018-06-28T08:30:29.218Z,89.80
2018-06-28T08:32:57.664Z,89.40
2018-06-28T08:35:26.161Z,88.20
2018-06-28T08:37:54.627Z,88.50
2018-06-28T08:40:23.033Z,88.50
2018-06-28T08:42:51.457Z,88.10
2018-06-28T08:45:19.868Z,88.50
2018-06-28T08:47:48.279Z,87.10
2018-06-28T08:50:16.687Z,87.20
2018-06-28T08:52:45.115Z,87.50
2018-06-28T08:55:13.527Z,88.20
2018-06-28T08:57:41.977Z,87.40
2018-06-28T09:00:10.409Z,87.70
2018-06-28T09:02:38.845Z,86.90
2018-06-28T09:05:07.268Z,87.00
2018-06-28T09:07:36.639Z,86.50
2018-06-28T09:10:05.220Z,86.50
2018-06-28T09:12:33.632Z,85.20
2018-06-28T09:15:02.103Z,86.00
2018-06-28T09:17:30.531Z,86.40
2018-06-28T09:22:27.020Z,85.20
2018-06-28T09:24:55.460Z,85.50
2018-06-28T09:27:23.935Z,85.20
2018-06-28T09:32:20.522Z,83.80
2018-06-28T09:34:48.904Z,82.90
2018-06-28T09:37:17.337Z,83.90
2018-06-28T09:41:10.659Z,83.20
2018-06-28T09:43:39.071Z,84.70
2018-06-28T09:46:07.484Z,83.40
2018-06-28T09:51:04.025Z,82.00
2018-06-28T09:53:32.437Z,82.10
2018-06-28T09:56:00.874Z,81.60
2018-06-28T09:58:29.308Z,81.20
2018-06-28T10:00:57.791Z,81.70
2018-06-28T10:03:26.311Z,81.60
2018-06-28T10:05:54.731Z,80.10
2018-06-28T10:08:23.236Z,79.60
2018-06-28T10:10:51.763Z,79.60
2018-06-28T10:13:20.234Z,79.80
2018-06-28T10:15:48.595Z,79.60
2018-06-28T10:18:16.996Z,78.80
2018-06-28T10:20:45.482Z,80.00
2018-06-28T10:23:13.971Z,78.70
2018-06-28T10:25:42.404Z,78.60
2018-06-28T10:28:10.908Z,79.30
2018-06-28T10:30:39.356Z,79.30
2018-06-28T10:33:07.812Z,79.50
2018-06-28T10:38:04.328Z,79.20
2018-06-28T10:40:32.740Z,79.00
2018-06-28T10:43:01.179Z,78.50
2018-06-28T10:45:29.561Z,78.80
2018-06-28T10:47:57.971Z,78.10
2018-06-28T10:50:26.523Z,77.40
2018-06-28T10:52:54.924Z,77.70
2018-06-28T10:56:47.516Z,78.20
2018-06-28T10:59:15.919Z,77.70
2018-06-28T11:01:44.341Z,77.80
2018-06-28T11:04:12.712Z,77.70
2018-06-28T11:06:41.135Z,77.90
2018-06-28T11:09:10.703Z,77.70
2018-06-28T11:11:39.912Z,76.90
2018-06-28T11:14:08.347Z,76.70
2018-06-28T11:16:36.818Z,77.50
2018-06-28T11:19:05.392Z,76.70
2018-06-28T11:21:33.800Z,75.80
2018-06-28T11:24:02.256Z,76.20
2018-06-28T11:26:30.727Z,76.20
2018-06-28T11:28:59.156Z,75.30
2018-06-28T11:31:27.579Z,75.00
2018-06-28T11:33:56.063Z,75.50
2018-06-28T11:38:52.607Z,73.60
2018-06-28T11:41:20.992Z,73.30
2018-06-28T11:43:49.425Z,73.50
2018-06-28T11:46:17.844Z,72.90
2018-06-28T11:48:46.260Z,71.90
2018-06-28T11:51:14.720Z,72.00
2018-06-28T11:53:43.137Z,70.70
2018-06-28T11:56:11.554Z,72.10
2018-06-28T11:58:39.990Z,71.40
2018-06-28T12:01:08.388Z,71.00
2018-06-28T12:03:36.799Z,69.30
2018-06-28T12:06:05.271Z,70.30
2018-06-28T12:08:33.715Z,70.70
2018-06-28T12:11:02.151Z,70.00
2018-06-28T12:13:30.559Z,70.80
2018-06-28T12:15:59.181Z,70.40
2018-06-28T12:18:27.600Z,69.00
2018-06-28T12:23:24.143Z,66.70
2018-06-28T12:25:52.572Z,66.80
2018-06-28T12:28:21.072Z,66.20
2018-06-28T12:30:49.547Z,66.00
2018-06-28T12:33:17.952Z,66.30
2018-06-28T12:35:46.335Z,66.40
2018-06-28T12:38:17.239Z,65.80
2018-06-28T12:40:45.646Z,64.90
2018-06-28T12:43:14.064Z,63.40
2018-06-28T12:50:40.950Z,62.70
2018-06-28T12:56:43.703Z,63.30
2018-06-28T12:59:14.580Z,61.60
2018-06-28T13:01:43.239Z,61.40
2018-06-28T13:04:11.749Z,63.00
